ホニアラ の空港の天気 - METARとTAF

ホニアラ国際空港 ( AGGH / HIR ) - ソロモン諸島 ガダルカナル島ホニアラ
飛行場実況気象(Metar)
観測時間10/22 03:00 SBT (10/21 16:00 UTC)
風向・風速南東 1m/s
視程10km以上
天気現象
少しの雲 雲底高度 430m
気温23℃
湿度100%
気圧1008hPa
METARAGGH 211600Z 14002KT 9999 FEW014 23/23 Q1008
過去の天気等 Google飛行場航空写真 Wunderground天気予報

過去48時間のMETAR

飛行場予報(TAF)
発表時間: 10/21 16:10 SBT (10/21 05:10 UTC)
予報対象時間: 21日17時 SBT ~ 22日17時 SBT
風向・風速東北東 5m/s
視程10km以上
全天の4割程度の雲 雲底高度 520m
TAF AGGH 210510Z 2106/2206 07010KT 9999 SCT017
PROB40 INTER 2106/2109 5000 TSSH BKN015 FEW016CB T 28 27 26 24 Q 1007 1009 1010 1008